Gargnas Airport


Codes: ESUG/
Name: Gargnas Airport
City: Gargnas
Country: Sweden
Elevation: 0 ft.

Photos at Gargnas Airport


   Photos courtesy of SpottingLog. You can add your own sightings and photos by signing up for a free trial today.



No photos found.

Weather at Gargnas Airport


Time (UTC)DescriptionTempratureWindCloud coverageVisibilityPressureHumidity
16-Jun-2024 03:00Scattered Clouds8°C4 mph, SE39%10000m1012hPa86%
16-Jun-2024 06:00Scattered Clouds11°C7 mph, S39%10000m1012hPa70%
16-Jun-2024 09:00Overcast Clouds17°C9 mph, SE99%10000m1012hPa46%
16-Jun-2024 12:00Overcast Clouds18°C11 mph, S100%10000m1011hPa44%
16-Jun-2024 15:00Light Rain13°C9 mph, SE100%10000m1012hPa79%
16-Jun-2024 18:00Light Rain12°C9 mph, SE100%10000m1012hPa83%
16-Jun-2024 21:00Overcast Clouds11°C4 mph, SE94%10000m1014hPa88%
17-Jun-2024 00:00Overcast Clouds11°C4 mph, SE97%10000m1014hPa89%
17-Jun-2024 03:00Light Rain11°C4 mph, SE100%10000m1015hPa91%
17-Jun-2024 06:00Overcast Clouds15°C7 mph, SE100%10000m1015hPa69%
17-Jun-2024 09:00Broken Clouds18°C7 mph, SE81%10000m1014hPa51%
17-Jun-2024 12:00Broken Clouds18°C7 mph, SE84%10000m1012hPa50%
17-Jun-2024 15:00Light Rain19°C7 mph, SE93%10000m1012hPa50%
17-Jun-2024 18:00Light Rain16°C9 mph, SE96%10000m1011hPa68%
17-Jun-2024 21:00Light Rain12°C4 mph, SE96%10000m1011hPa93%
18-Jun-2024 00:00Light Rain11°C2 mph, SE98%10000m1011hPa98%
18-Jun-2024 03:00Light Rain12°C4 mph, SE100%10000m1009hPa97%
18-Jun-2024 06:00Overcast Clouds12°C4 mph, SE100%10000m1008hPa92%
18-Jun-2024 09:00Light Rain15°C4 mph, SE100%10000m1007hPa74%
18-Jun-2024 12:00Light Rain14°C7 mph, W99%10000m1006hPa85%
18-Jun-2024 15:00Broken Clouds17°C4 mph, W67%10000m1004hPa60%
18-Jun-2024 18:00Light Rain17°C2 mph, W61%10000m1003hPa62%
18-Jun-2024 21:00Light Rain12°C4 mph, NW67%10000m1003hPa87%
19-Jun-2024 00:00Scattered Clouds9°C4 mph, NW38%10000m1002hPa91%
19-Jun-2024 03:00Clear Sky10°C4 mph, NW10%10000m1001hPa84%
19-Jun-2024 06:00Few Clouds15°C11 mph, NW11%10000m1000hPa58%
19-Jun-2024 09:00Overcast Clouds14°C11 mph, NW85%10000m1001hPa58%
19-Jun-2024 12:00Overcast Clouds15°C11 mph, NW93%10000m1001hPa52%
19-Jun-2024 15:00Overcast Clouds15°C11 mph, NW99%10000m1000hPa50%
19-Jun-2024 18:00Overcast Clouds12°C11 mph, NW99%10000m1001hPa55%
19-Jun-2024 21:00Few Clouds8°C7 mph, NW19%10000m1001hPa71%
20-Jun-2024 00:00Broken Clouds5°C2 mph, W57%10000m1000hPa76%
20-Jun-2024 03:00Overcast Clouds7°C4 mph, W100%10000m999hPa63%
20-Jun-2024 06:00Overcast Clouds10°C9 mph, W99%10000m996hPa45%
20-Jun-2024 09:00Overcast Clouds11°C13 mph, W100%10000m996hPa66%
20-Jun-2024 12:00Overcast Clouds12°C11 mph, W99%10000m996hPa52%
20-Jun-2024 15:00Broken Clouds14°C11 mph, NW68%10000m994hPa37%
20-Jun-2024 18:00Broken Clouds12°C9 mph, W79%10000m994hPa45%
20-Jun-2024 21:00Scattered Clouds6°C7 mph, W35%10000m996hPa80%
21-Jun-2024 00:00Few Clouds4°C4 mph, NW22%10000m998hPa89%